Latest Weather Observations for Perth

IDW60901

Issued at 5:41 pm WST Wednesday 27 May 2015 (issued every 10 minutes, with the page automatically refreshed every 10 minutes)

About weather observations | Map of Perth area stations | Latest observations for Perth area | Other Formats
Station Details ID: 009225 Name: PERTH METRO Lat: -31.92 Lon: 115.87 Height: 24.9 m
Data from the previous 72 hours. | See also: Recent months at Perth
Date/Time
WST
Tmp

°C
App
Tmp
°C
Dew
Point
°C
Rel
Hum
%
Delta-T

°C
Wind Press
QNH
hPa
Press
MSL
hPa
Rain
since
9 am
mm
Dir
 
Spd
km/h
Gust
km/h
Spd
kts
Gust
kts
27/05:30pm 15.6 12.5 5.5 51 4.8 SSW 11 15 6 8 1021.2 1021.1 0.0
27/05:00pm 16.0 13.0 5.9 51 4.9 S 11 19 6 10 1021.1 1021.0 0.0
27/04:30pm 17.0 13.2 5.9 48 5.4 SSE 15 20 8 11 1021.0 1020.9 0.0
27/04:00pm 17.7 14.4 6.3 47 5.6 SSW 13 24 7 13 1021.0 1020.9 0.0
27/03:30pm 17.7 14.0 6.3 47 5.6 SSE 15 22 8 12 1021.0 1020.9 0.0
27/03:00pm 17.6 13.6 6.5 48 5.5 SSE 17 26 9 14 1021.1 1021.0 0.0
27/02:30pm 17.5 13.8 6.4 48 5.5 S 15 32 8 17 1021.2 1021.1 0.0
27/02:00pm 18.0 14.3 6.5 47 5.7 S 15 26 8 14 1021.3 1021.2 0.0
27/01:30pm 17.5 13.5 6.7 49 5.4 SSE 17 24 9 13 1021.5 1021.4 0.0
27/01:00pm 18.3 15.1 6.8 47 5.7 SSE 13 22 7 12 1021.8 1021.7 0.0
27/12:30pm 17.7 14.0 6.3 47 5.6 SSE 15 22 8 12 1022.2 1022.1 0.0
27/12:00pm 17.8 14.7 7.2 50 5.3 SSE 13 22 7 12 1022.7 1022.6 0.0
27/11:30am 17.3 14.2 7.1 51 5.1 SSE 13 20 7 11 1023.2 1023.1 0.0
27/11:00am 16.7 13.5 6.8 52 4.9 SE 13 20 7 11 1023.4 1023.3 0.0
27/10:30am 16.2 14.3 7.7 57 4.3 E 7 13 4 7 1023.9 1023.8 0.0
27/10:00am 15.7 14.2 9.1 65 3.4 E 7 13 4 7 1024.3 1024.2 0.0
27/09:30am 14.0 12.3 8.4 69 2.8 SE 7 13 4 7 1024.3 1024.2 0.0
27/09:00am 12.9 12.2 9.9 82 1.5 SW 4 9 2 5 1024.2 1024.1 0.0
27/08:30am 10.8 10.3 9.4 91 0.7 SW 2 9 1 5 1024.1 1024.0 0.0
27/08:00am 9.5 9.3 8.9 96 0.3 CALM 0 0 0 0 1023.9 1023.8 0.0
27/07:30am 9.6 9.5 9.3 98 0.1 CALM 0 0 0 0 1023.7 1023.6 0.0
27/07:00am 9.3 9.1 9.0 98 0.1 CALM 0 0 0 0 1023.4 1023.3 0.0
27/06:30am 9.1 8.8 8.8 98 0.1 CALM 0 0 0 0 1023.3 1023.2 0.0
27/06:00am 8.2 7.7 7.9 98 0.1 CALM 0 0 0 0 1022.9 1022.8 0.0
27/05:30am 7.5 6.8 7.1 97 0.2 CALM 0 0 0 0 1022.6 1022.5 0.0
27/05:00am 7.9 7.3 7.5 97 0.2 CALM 0 0 0 0 1022.5 1022.4 0.0
27/04:30am 8.2 7.7 7.8 97 0.2 CALM 0 0 0 0 1022.6 1022.5 0.0
27/04:00am 8.3 7.8 7.7 96 0.3 CALM 0 0 0 0 1022.6 1022.5 0.0
27/03:30am 8.8 8.4 8.4 97 0.2 CALM 0 0 0 0 1022.8 1022.7 0.0
27/03:00am 9.5 9.3 9.0 97 0.2 CALM 0 0 0 0 1022.8 1022.7 0.0
27/02:30am 9.7 9.5 9.2 97 0.2 CALM 0 0 0 0 1022.8 1022.7 0.0
27/02:00am 9.6 9.4 9.0 96 0.3 CALM 0 0 0 0 1023.1 1023.0 0.0
27/01:30am 9.4 9.1 8.6 95 0.4 CALM 0 0 0 0 1022.9 1022.8 0.0
27/01:00am 10.1 10.0 9.3 95 0.4 CALM 0 0 0 0 1023.0 1022.9 0.0
27/12:30am 10.4 10.3 9.5 94 0.4 CALM 0 0 0 0 1023.0 1022.9 0.0
27/12:00am 11.5 11.0 10.6 94 0.5 SW 4 7 2 4 1023.1 1023.0 0.0
 
Date/Time
WST
Tmp

°C
App
Tmp
°C
Dew
Point
°C
Rel
Hum
%
Delta-T

°C
Wind Press
QNH
hPa
Press
MSL
hPa
Rain
since
9 am
mm
Dir
 
Spd
km/h
Gust
km/h
Spd
kts
Gust
kts
26/11:30pm 11.6 10.7 10.8 95 0.4 SW 6 7 3 4 1023.1 1023.0 0.0
26/11:00pm 11.9 12.3 11.1 95 0.4 CALM 0 0 0 0 1023.5 1023.4 0.0
26/10:30pm 11.5 11.7 10.7 95 0.4 CALM 0 0 0 0 1023.7 1023.6 0.0
26/10:00pm 11.9 11.9 11.0 94 0.5 SW 2 7 1 4 1023.8 1023.7 0.0
26/09:30pm 12.0 12.3 10.9 93 0.6 CALM 0 0 0 0 1023.7 1023.6 0.0
26/09:00pm 12.4 12.4 11.0 91 0.7 SW 2 7 1 4 1023.8 1023.7 0.0
26/08:30pm 13.0 13.4 11.2 89 0.9 CALM 0 0 0 0 1023.6 1023.5 0.0
26/08:00pm 14.1 14.5 11.4 84 1.4 CALM 0 0 0 0 1023.5 1023.4 0.0
26/07:30pm 15.3 15.9 11.9 80 1.8 CALM 0 0 0 0 1023.4 1023.3 0.0
26/07:00pm 15.4 14.9 12.0 80 1.8 SW 6 7 3 4 1023.2 1023.1 0.0
26/06:30pm 15.8 15.2 11.8 77 2.2 SW 6 7 3 4 1023.0 1022.9 0.0
26/06:00pm 16.1 15.4 11.5 74 2.5 SW 6 9 3 5 1022.8 1022.7 0.0
26/05:30pm 16.7 15.4 11.2 70 3.0 SW 9 15 5 8 1022.6 1022.5 0.0
26/05:00pm 17.3 16.0 11.1 67 3.3 SW 9 17 5 9 1022.6 1022.5 0.0
26/04:30pm 18.2 16.4 10.8 62 4.0 SW 11 17 6 9 1022.4 1022.3 0.0
26/04:00pm 18.8 17.3 10.4 58 4.5 SSW 9 19 5 10 1022.4 1022.3 0.0
26/03:30pm 18.7 17.8 11.3 62 4.0 SSE 7 13 4 7 1022.4 1022.3 0.0
26/03:00pm 19.2 18.0 11.5 61 4.2 SSE 9 19 5 10 1022.5 1022.4 0.0
26/02:30pm 19.0 18.0 11.1 60 4.3 SSW 7 13 4 7 1022.4 1022.3 0.0
26/02:00pm 18.5 16.7 12.0 66 3.6 S 13 20 7 11 1022.6 1022.5 0.0
26/01:30pm 18.4 16.7 12.6 69 3.2 S 13 19 7 10 1022.7 1022.6 0.0
26/01:00pm 18.8 17.6 12.8 68 3.4 SSW 11 17 6 9 1022.8 1022.7 0.0
26/12:30pm 19.2 17.4 12.0 63 4.0 SW 13 19 7 10 1023.1 1023.0 0.0
26/12:00pm 19.9 19.5 13.1 65 3.8 SSE 7 11 4 6 1023.4 1023.3 0.0
26/11:30am 18.6 17.1 11.9 65 3.7 SSE 11 15 6 8 1023.8 1023.7 0.0
26/11:00am 17.4 15.7 12.3 72 2.8 SSE 13 19 7 10 1024.1 1024.0 0.0
26/10:30am 18.0 17.4 11.8 67 3.4 SSE 6 9 3 5 1024.1 1024.0 0.0
26/10:00am 17.0 16.5 11.9 72 2.8 N 6 11 3 6 1024.3 1024.2 0.0
26/09:30am 16.4 15.6 11.8 74 2.5 N 7 11 4 6 1024.0 1023.9 0.0
26/09:00am 14.2 12.7 10.6 79 1.9 WSW 9 15 5 8 1023.9 1023.8 0.0
26/08:30am 12.4 11.1 9.8 84 1.3 SW 7 11 4 6 1023.8 1023.7 0.0
26/08:00am 10.7 9.2 9.3 91 0.7 SW 7 9 4 5 1023.6 1023.5 0.0
26/07:30am 9.3 7.9 8.7 96 0.3 SW 6 7 3 4 1023.4 1023.3 0.0
26/07:00am 8.9 7.8 8.3 96 0.3 SW 4 7 2 4 1023.3 1023.2 0.0
26/06:30am 9.1 8.8 8.5 96 0.3 CALM 0 0 0 0 1023.0 1022.9 0.0
26/06:00am 9.0 8.6 8.4 96 0.3 CALM 0 0 0 0 1022.6 1022.5 0.0
26/05:30am 9.1 8.8 8.5 96 0.3 CALM 0 0 0 0 1022.3 1022.2 0.0
26/05:00am 8.9 8.5 8.3 96 0.3 CALM 0 0 0 0 1022.1 1022.0 0.0
26/04:30am 8.7 8.3 8.1 96 0.3 CALM 0 0 0 0 1022.1 1022.0 0.0
26/04:00am 8.7 8.2 7.9 95 0.4 CALM 0 0 0 0 1022.1 1022.0 0.0
26/03:30am 9.4 9.1 8.6 95 0.4 CALM 0 0 0 0 1022.1 1022.0 0.0
26/03:00am 9.6 9.3 8.7 94 0.4 CALM 0 0 0 0 1022.1 1022.0 0.0
26/02:30am 9.9 9.2 8.5 91 0.7 SW 2 6 1 3 1022.2 1022.1 0.0
26/02:00am 10.7 10.6 9.3 91 0.7 CALM 0 0 0 0 1022.3 1022.2 0.0
26/01:30am 11.0 10.6 9.9 93 0.6 SW 2 7 1 4 1022.4 1022.3 0.0
26/01:00am 10.3 10.2 9.4 94 0.4 CALM 0 0 0 0 1022.4 1022.3 0.0
26/12:30am 10.1 9.9 9.2 94 0.4 CALM 0 0 0 0 1022.4 1022.3 0.0
26/12:00am 10.4 10.3 9.5 94 0.4 CALM 0 0 0 0 1022.7 1022.6 0.0
 
Date/Time
WST
Tmp

°C
App
Tmp
°C
Dew
Point
°C
Rel
Hum
%
Delta-T

°C
Wind Press
QNH
hPa
Press
MSL
hPa
Rain
since
9 am
mm
Dir
 
Spd
km/h
Gust
km/h
Spd
kts
Gust
kts
25/11:30pm 10.4 10.3 9.3 93 0.5 CALM 0 0 0 0 1022.9 1022.8 0.0
25/11:00pm 10.5 10.4 9.3 92 0.6 CALM 0 0 0 0 1022.9 1022.8 0.0
25/10:30pm 11.1 11.0 9.5 90 0.8 CALM 0 0 0 0 1023.0 1022.9 0.0
25/10:00pm 11.1 10.7 9.7 91 0.7 SW 2 7 1 4 1023.1 1023.0 0.0
25/09:30pm 11.1 11.0 9.5 90 0.8 CALM 0 0 0 0 1022.8 1022.7 0.0
25/09:00pm 11.2 11.1 9.3 88 0.9 CALM 0 0 0 0 1022.7 1022.6 0.0
25/08:30pm 11.7 11.6 9.4 86 1.2 CALM 0 0 0 0 1022.5 1022.4 0.0
25/08:00pm 12.4 12.4 9.8 84 1.3 CALM 0 0 0 0 1022.4 1022.3 0.0
25/07:30pm 12.9 12.8 9.5 80 1.7 CALM 0 0 0 0 1022.1 1022.0 0.0
25/07:00pm 13.6 13.5 9.3 75 2.2 CALM 0 0 0 0 1021.8 1021.7 0.0
25/06:30pm 15.2 15.2 9.8 70 2.8 CALM 0 6 0 3 1021.6 1021.5 0.0
25/06:00pm 16.5 15.3 9.4 63 3.7 SW 6 9 3 5 1021.3 1021.2 0.0
25/05:30pm 17.6 16.1 9.0 57 4.5 SW 7 11 4 6 1021.1 1021.0 0.0
25/05:00pm 18.5 16.1 8.5 52 5.2 SW 11 17 6 9 1020.8 1020.7 0.0
25/04:30pm 19.3 16.4 8.0 48 5.8 SW 13 19 7 10 1020.8 1020.7 0.0
25/04:00pm 20.0 16.8 8.4 47 6.0 SW 15 22 8 12 1020.8 1020.7 0.0
25/03:30pm 20.6 17.7 8.3 45 6.4 SW 13 20 7 11 1020.6 1020.5 0.0
25/03:00pm 21.1 19.0 8.4 44 6.6 SW 9 15 5 8 1020.6 1020.5 0.0
25/02:30pm 21.4 19.5 9.0 45 6.6 SSW 9 15 5 8 1020.4 1020.3 0.0
25/02:00pm 21.4 19.3 8.3 43 6.9 SSW 9 13 5 7 1020.4 1020.3 0.0
25/01:30pm 21.1 18.9 8.0 43 6.8 SSW 9 15 5 8 1020.6 1020.5 0.0
25/01:00pm 20.8 18.9 9.1 47 6.2 SSW 9 17 5 9 1020.9 1020.8 0.0
25/12:30pm 20.8 18.8 10.3 51 5.7 SSE 11 17 6 9 1021.1 1021.0 0.0
25/12:00pm 20.6 19.4 9.5 49 5.9 ENE 6 11 3 6 1021.5 1021.4 0.0
25/11:30am 20.4 19.7 9.9 51 5.6 ENE 4 7 2 4 1021.9 1021.8 0.0
25/11:00am 19.3 18.1 9.5 53 5.2 ENE 6 11 3 6 1022.2 1022.1 0.0
25/10:30am 19.0 17.6 9.5 54 5.0 ENE 7 9 4 5 1022.4 1022.3 0.0
25/10:00am 17.9 16.1 9.5 58 4.4 ENE 9 15 5 8 1022.4 1022.3 0.0
25/09:30am 17.1 15.6 9.0 59 4.2 SSW 7 9 4 5 1022.4 1022.3 0.0
25/09:00am 16.0 14.6 9.0 63 3.6 SSW 6 9 3 5 1022.4 1022.3 0.0
25/08:30am 14.8 13.9 9.2 69 2.9 SSW 4 7 2 4 1022.4 1022.3 0.0
25/08:00am 11.8 11.1 10.0 89 0.9 SSW 4 7 2 4 1022.2 1022.1 0.0
25/07:30am 9.9 9.6 8.7 92 0.6 CALM 0 0 0 0 1022.2 1022.1 0.0
25/07:00am 10.1 9.8 8.7 91 0.7 CALM 0 0 0 0 1021.9 1021.8 0.0
25/06:30am 10.9 10.5 9.7 92 0.6 SSW 2 7 1 4 1021.3 1021.2 0.0
25/06:00am 11.2 11.2 9.9 92 0.7 CALM 0 4 0 2 1021.5 1021.4 0.0
25/05:30am 11.2 11.3 10.1 93 0.6 CALM 0 0 0 0 1021.5 1021.4 0.0
25/05:00am 11.0 10.9 9.6 91 0.7 CALM 0 0 0 0 1021.5 1021.4 0.0
25/04:30am 11.9 12.0 10.1 89 0.9 CALM 0 0 0 0 1021.4 1021.3 0.0
25/04:00am 12.5 12.7 10.6 88 1.0 CALM 0 0 0 0 1021.5 1021.4 0.0
25/03:30am 12.5 12.7 10.7 89 0.9 CALM 0 0 0 0 1021.8 1021.7 0.0
25/03:00am 12.0 12.2 10.6 91 0.7 CALM 0 0 0 0 1021.9 1021.8 0.0
25/02:30am 11.7 11.8 10.1 90 0.8 CALM 0 0 0 0 1021.9 1021.8 0.0
25/02:00am 12.3 12.4 10.2 87 1.1 CALM 0 0 0 0 1021.9 1021.8 0.0
25/01:30am 12.6 12.8 10.7 88 1.0 CALM 0 0 0 0 1022.0 1021.9 0.0
25/01:00am 12.5 12.7 10.7 89 0.9 CALM 0 0 0 0 1022.1 1022.0 0.0
25/12:30am 12.1 12.2 10.2 88 1.0 CALM 0 0 0 0 1022.0 1021.9 0.0
25/12:00am 12.8 12.9 10.2 84 1.3 CALM 0 0 0 0 1021.9 1021.8 0.0
 
Date/Time
WST
Tmp

°C
App
Tmp
°C
Dew
Point
°C
Rel
Hum
%
Delta-T

°C
Wind Press
QNH
hPa
Press
MSL
hPa
Rain
since
9 am
mm
Dir
 
Spd
km/h
Gust
km/h
Spd
kts
Gust
kts
24/11:30pm 13.8 13.6 10.4 80 1.8 SSW 2 7 1 4 1021.8 1021.7 0.0
24/11:00pm 14.4 13.3 10.6 78 2.0 SSW 7 11 4 6 1021.9 1021.8 0.0
24/10:30pm 13.7 13.1 10.5 81 1.7 SSW 4 7 2 4 1022.0 1021.9 0.0
24/10:00pm 13.3 12.6 10.1 81 1.6 SSW 4 7 2 4 1021.8 1021.7 0.0
24/09:30pm 13.7 12.8 10.5 81 1.7 SSW 6 9 3 5 1021.9 1021.8 0.0
24/09:00pm 13.5 12.3 9.7 78 1.9 SSW 6 7 3 4 1021.8 1021.7 0.0
24/08:30pm 14.2 13.2 10.2 77 2.1 SSW 6 9 3 5 1021.6 1021.5 0.0
24/08:00pm 14.8 13.7 10.0 73 2.5 SSW 6 9 3 5 1021.5 1021.4 0.0
24/07:30pm 15.8 14.5 10.1 69 3.0 SSW 7 9 4 5 1021.4 1021.3 0.0
24/07:00pm 16.1 14.9 10.4 69 3.0 SSW 7 13 4 7 1021.3 1021.2 0.0
24/06:30pm 16.1 14.9 10.2 68 3.1 SSW 7 11 4 6 1021.1 1021.0 0.0
24/06:00pm 16.4 15.2 10.3 67 3.2 SSW 7 9 4 5 1020.9 1020.8 0.0

Latest Capital City Observations: Canberra | Sydney | Melbourne | Brisbane | Adelaide | Perth | Hobart | Darwin

Other Formats:

Comma delimited format used in spreadsheet applications
http://www.bom.gov.au/fwo/IDW60901/IDW60901.94608.axf

JavaScript Object Notation format (JSON) in row-major order
http://www.bom.gov.au/fwo/IDW60901/IDW60901.94608.json